Time,TemperatureF,DewpointF,PressureIn,WindDirection,WindDirectionDegrees,WindSpeedMPH,WindSpeedGustMPH,Humidity,HourlyPrecipIn,Conditions,Clouds,dailyrainin,SoftwareType,DateUTC
2013-07-28 00:02:00,52.9,48.3,29.82,WNW,293,0.7,1.8,84,0.00,,,0.00,WUHU216HW,2013-07-28 05:02:00,
2013-07-28 00:07:00,52.9,48.3,29.82,WSW,248,1.8,1.8,84,0.00,,,0.00,WUHU216HW,2013-07-28 05:07:00,
2013-07-28 00:12:00,52.9,48.3,29.82,South,180,0.4,2.2,84,0.00,,,0.00,WUHU216HW,2013-07-28 05:12:00,
2013-07-28 00:17:00,52.9,48.3,29.82,NW,315,2.9,2.9,84,0.00,,,0.00,WUHU216HW,2013-07-28 05:17:00,
2013-07-28 00:22:00,52.9,48.3,29.82,NW,315,0.7,2.9,84,0.00,,,0.00,WUHU216HW,2013-07-28 05:22:00,
2013-07-28 00:27:00,52.9,48.3,29.82,West,270,0.4,2.5,84,0.00,,,0.00,WUHU216HW,2013-07-28 05:27:00,
2013-07-28 00:32:00,52.9,48.3,29.82,NNW,338,0.4,1.3,84,0.00,,,0.00,WUHU216HW,2013-07-28 05:32:00,
2013-07-28 00:37:00,52.9,48.3,29.82,SW,225,0.4,4.5,84,0.00,,,0.00,WUHU216HW,2013-07-28 05:37:00,
2013-07-28 00:42:00,52.9,48.3,29.82,NW,315,0.0,4.5,84,0.00,,,0.00,WUHU216HW,2013-07-28 05:42:00,
2013-07-28 00:47:00,52.9,48.3,29.82,WNW,293,1.3,2.5,84,0.00,,,0.00,WUHU216HW,2013-07-28 05:47:00,
2013-07-28 00:52:00,52.9,48.3,29.82,NW,315,0.4,2.5,84,0.00,,,0.00,WUHU216HW,2013-07-28 05:52:00,
2013-07-28 00:57:00,52.7,48.3,29.82,WNW,293,1.1,2.0,85,0.00,,,0.00,WUHU216HW,2013-07-28 05:57:00,
2013-07-28 01:02:00,52.7,48.3,29.82,West,270,0.2,2.0,85,0.00,,,0.00,WUHU216HW,2013-07-28 06:02:00,
2013-07-28 01:07:00,52.7,48.3,29.82,NW,315,0.7,4.0,85,0.00,,,0.00,WUHU216HW,2013-07-28 06:07:00,
2013-07-28 01:12:00,52.7,48.3,29.82,North,0,1.8,4.0,85,0.00,,,0.00,WUHU216HW,2013-07-28 06:12:00,
2013-07-28 01:17:00,52.6,48.2,29.82,South,180,0.7,2.7,85,0.00,,,0.00,WUHU216HW,2013-07-28 06:17:00,
2013-07-28 01:22:00,52.7,48.3,29.82,West,270,2.2,2.9,85,0.00,,,0.00,WUHU216HW,2013-07-28 06:22:00,
2013-07-28 01:27:00,52.7,48.3,29.81,West,270,1.8,3.8,85,0.00,,,0.00,WUHU216HW,2013-07-28 06:27:00,
2013-07-28 01:32:00,52.7,48.3,29.82,West,270,4.0,4.0,85,0.00,,,0.00,WUHU216HW,2013-07-28 06:32:00,
2013-07-28 01:37:00,52.7,48.3,29.82,WSW,248,2.5,4.0,85,0.00,,,0.00,WUHU216HW,2013-07-28 06:37:00,
2013-07-28 01:42:00,52.7,48.3,29.81,WNW,293,0.2,2.5,85,0.00,,,0.00,WUHU216HW,2013-07-28 06:42:00,
2013-07-28 01:47:00,52.7,48.6,29.81,WSW,248,1.1,2.0,86,0.00,,,0.00,WUHU216HW,2013-07-28 06:47:00,
2013-07-28 01:52:00,52.6,48.4,29.81,WNW,293,1.1,1.8,86,0.00,,,0.00,WUHU216HW,2013-07-28 06:52:00,
2013-07-28 01:57:00,52.6,48.4,29.81,NNW,338,0.4,1.8,86,0.00,,,0.00,WUHU216HW,2013-07-28 06:57:00,
2013-07-28 02:02:00,52.6,48.4,29.81,WNW,293,0.9,1.8,86,0.00,,,0.00,WUHU216HW,2013-07-28 07:02:00,
2013-07-28 02:07:00,52.6,48.4,29.81,NW,315,1.1,2.2,86,0.00,,,0.00,WUHU216HW,2013-07-28 07:07:00,
2013-07-28 02:12:00,52.6,48.4,29.81,SSE,158,0.7,2.2,86,0.00,,,0.00,WUHU216HW,2013-07-28 07:12:00,
2013-07-28 02:17:00,52.6,48.4,29.81,SE,135,1.1,2.2,86,0.00,,,0.00,WUHU216HW,2013-07-28 07:17:00,
2013-07-28 02:22:00,52.6,48.4,29.81,West,270,0.4,2.2,86,0.00,,,0.00,WUHU216HW,2013-07-28 07:22:00,
2013-07-28 02:27:00,52.4,48.2,29.81,WNW,293,3.4,3.4,86,0.00,,,0.00,WUHU216HW,2013-07-28 07:27:00,
2013-07-28 02:32:00,52.4,48.2,29.81,North,0,0.9,3.4,86,0.00,,,0.00,WUHU216HW,2013-07-28 07:32:00,
2013-07-28 02:37:00,52.2,48.1,29.81,WSW,248,2.2,2.5,86,0.00,,,0.00,WUHU216HW,2013-07-28 07:37:00,
2013-07-28 02:42:00,52.2,48.1,29.81,NW,315,2.7,2.7,86,0.00,,,0.00,WUHU216HW,2013-07-28 07:42:00,
2013-07-28 02:47:00,52.0,47.9,29.81,NW,315,0.2,2.7,86,0.00,,,0.00,WUHU216HW,2013-07-28 07:47:00,
2013-07-28 02:52:00,51.8,47.7,29.81,WSW,248,2.5,2.7,86,0.00,,,0.00,WUHU216HW,2013-07-28 07:52:00,
2013-07-28 02:57:00,51.8,48.1,29.81,West,270,1.3,2.7,87,0.00,,,0.00,WUHU216HW,2013-07-28 07:57:00,
2013-07-28 03:02:00,51.7,47.9,29.81,NW,315,1.1,2.9,87,0.00,,,0.00,WUHU216HW,2013-07-28 08:02:00,
2013-07-28 03:07:00,51.7,47.9,29.81,SW,225,1.1,2.9,87,0.00,,,0.00,WUHU216HW,2013-07-28 08:07:00,
2013-07-28 03:12:00,51.7,48.2,29.81,NW,315,1.1,3.4,88,0.00,,,0.00,WUHU216HW,2013-07-28 08:12:00,
2013-07-28 03:17:00,51.8,48.3,29.81,WNW,293,3.6,4.0,88,0.00,,,0.00,WUHU216HW,2013-07-28 08:17:00,
2013-07-28 03:22:00,51.8,48.3,29.81,NW,315,1.8,4.0,88,0.00,,,0.00,WUHU216HW,2013-07-28 08:22:00,
2013-07-28 03:27:00,51.8,48.3,29.81,West,270,1.3,2.2,88,0.00,,,0.00,WUHU216HW,2013-07-28 08:27:00,
2013-07-28 03:32:00,51.8,48.3,29.81,WNW,293,1.1,2.5,88,0.00,,,0.00,WUHU216HW,2013-07-28 08:32:00,
2013-07-28 03:37:00,51.8,48.3,29.81,NW,315,1.3,2.5,88,0.00,,,0.00,WUHU216HW,2013-07-28 08:37:00,
2013-07-28 03:42:00,51.8,48.3,29.81,NW,315,1.1,2.5,88,0.00,,,0.00,WUHU216HW,2013-07-28 08:42:00,
2013-07-28 03:47:00,51.8,48.3,29.80,NW,315,1.8,2.9,88,0.00,,,0.00,WUHU216HW,2013-07-28 08:47:00,
2013-07-28 03:52:00,51.7,48.2,29.81,NNW,338,1.3,2.9,88,0.00,,,0.00,WUHU216HW,2013-07-28 08:52:00,
2013-07-28 03:57:00,51.7,48.2,29.81,NW,315,2.7,2.7,88,0.00,,,0.00,WUHU216HW,2013-07-28 08:57:00,
2013-07-28 04:02:00,51.8,48.3,29.81,WNW,293,2.0,2.7,88,0.00,,,0.00,WUHU216HW,2013-07-28 09:02:00,
2013-07-28 04:07:00,51.8,48.3,29.81,WSW,248,4.3,4.3,88,0.00,,,0.00,WUHU216HW,2013-07-28 09:07:00,
2013-07-28 04:12:00,52.0,48.5,29.81,NW,315,2.2,4.3,88,0.00,,,0.00,WUHU216HW,2013-07-28 09:12:00,
2013-07-28 04:17:00,52.0,48.9,29.81,NNW,338,2.5,5.8,89,0.00,,,0.00,WUHU216HW,2013-07-28 09:17:00,
2013-07-28 04:22:00,52.0,48.9,29.81,WNW,293,3.4,5.8,89,0.00,,,0.00,WUHU216HW,2013-07-28 09:22:00,
2013-07-28 04:27:00,52.0,48.9,29.81,NW,315,4.0,4.0,89,0.00,,,0.00,WUHU216HW,2013-07-28 09:27:00,
2013-07-28 04:32:00,52.2,49.1,29.81,NW,315,3.4,4.0,89,0.00,,,0.00,WUHU216HW,2013-07-28 09:32:00,
2013-07-28 04:37:00,52.0,48.9,29.81,NW,315,4.0,4.0,89,0.00,,,0.00,WUHU216HW,2013-07-28 09:37:00,
2013-07-28 04:42:00,52.0,48.9,29.81,WNW,293,3.4,5.6,89,0.00,,,0.00,WUHU216HW,2013-07-28 09:42:00,
2013-07-28 04:47:00,51.8,48.7,29.81,North,0,1.8,5.6,89,0.00,,,0.00,WUHU216HW,2013-07-28 09:47:00,
2013-07-28 04:52:00,51.8,48.7,29.81,NW,315,4.0,4.7,89,0.00,,,0.00,WUHU216HW,2013-07-28 09:52:00,
2013-07-28 04:57:00,51.7,48.5,29.82,West,270,0.9,4.7,89,0.00,,,0.00,WUHU216HW,2013-07-28 09:57:00,
2013-07-28 05:02:00,51.8,48.7,29.82,NW,315,2.0,4.7,89,0.00,,,0.00,WUHU216HW,2013-07-28 10:02:00,
2013-07-28 05:07:00,51.8,48.7,29.82,WNW,293,0.7,4.0,89,0.00,,,0.00,WUHU216HW,2013-07-28 10:07:00,
2013-07-28 05:12:00,51.7,48.5,29.82,NW,315,3.1,4.0,89,0.00,,,0.00,WUHU216HW,2013-07-28 10:12:00,
2013-07-28 05:17:00,51.7,48.2,29.82,NW,315,1.8,3.6,88,0.00,,,0.00,WUHU216HW,2013-07-28 10:17:00,
2013-07-28 05:22:00,51.5,48.0,29.82,WSW,248,2.0,3.4,88,0.00,,,0.00,WUHU216HW,2013-07-28 10:22:00,
2013-07-28 05:27:00,51.3,47.8,29.82,NW,315,1.3,3.4,88,0.00,,,0.00,WUHU216HW,2013-07-28 10:27:00,
2013-07-28 05:32:00,51.1,47.6,29.82,WSW,248,1.3,3.4,88,0.00,,,0.00,WUHU216HW,2013-07-28 10:32:00,
2013-07-28 05:37:00,50.9,47.4,29.82,WNW,293,0.4,3.1,88,0.00,,,0.00,WUHU216HW,2013-07-28 10:37:00,
2013-07-28 05:42:00,50.9,47.4,29.83,WSW,248,0.4,2.2,88,0.00,,,0.00,WUHU216HW,2013-07-28 10:42:00,
2013-07-28 05:47:00,50.8,47.3,29.83,WSW,248,1.3,1.6,88,0.00,,,0.00,WUHU216HW,2013-07-28 10:47:00,
2013-07-28 05:52:00,50.8,47.6,29.83,NW,315,1.8,2.7,89,0.00,,,0.00,WUHU216HW,2013-07-28 10:52:00,
2013-07-28 05:57:00,50.8,47.6,29.83,NW,315,3.4,3.4,89,0.00,,,0.00,WUHU216HW,2013-07-28 10:57:00,
2013-07-28 06:02:00,50.9,47.8,29.83,NW,315,2.5,3.4,89,0.00,,,0.00,WUHU216HW,2013-07-28 11:02:00,
2013-07-28 06:07:00,50.9,47.8,29.83,NW,315,2.9,3.6,89,0.00,,,0.00,WUHU216HW,2013-07-28 11:07:00,
2013-07-28 06:12:00,51.1,48.0,29.83,WNW,293,2.9,3.6,89,0.00,,,0.00,WUHU216HW,2013-07-28 11:12:00,
2013-07-28 06:17:00,51.1,48.0,29.83,NW,315,6.0,6.3,89,0.00,,,0.00,WUHU216HW,2013-07-28 11:17:00,
2013-07-28 06:22:00,51.1,48.0,29.83,WNW,293,1.1,6.3,89,0.00,,,0.00,WUHU216HW,2013-07-28 11:22:00,
2013-07-28 06:27:00,51.1,48.0,29.83,NW,315,0.9,4.5,89,0.00,,,0.00,WUHU216HW,2013-07-28 11:27:00,
2013-07-28 06:32:00,51.3,48.2,29.84,North,0,1.1,4.0,89,0.00,,,0.00,WUHU216HW,2013-07-28 11:32:00,
2013-07-28 06:37:00,51.3,48.2,29.84,WSW,248,2.7,4.0,89,0.00,,,0.00,WUHU216HW,2013-07-28 11:37:00,
2013-07-28 06:42:00,51.3,48.2,29.84,NW,315,2.7,4.0,89,0.00,,,0.00,WUHU216HW,2013-07-28 11:42:00,
2013-07-28 06:47:00,51.5,48.3,29.84,WNW,293,2.5,3.6,89,0.00,,,0.00,WUHU216HW,2013-07-28 11:47:00,
2013-07-28 06:52:00,51.5,48.3,29.84,West,270,2.5,3.4,89,0.00,,,0.00,WUHU216HW,2013-07-28 11:52:00,
2013-07-28 06:57:00,51.5,48.3,29.84,West,270,1.8,4.5,89,0.00,,,0.00,WUHU216HW,2013-07-28 11:57:00,
2013-07-28 07:02:00,51.7,48.5,29.84,WSW,248,3.1,4.5,89,0.00,,,0.00,WUHU216HW,2013-07-28 12:02:00,
2013-07-28 07:07:00,51.8,48.7,29.84,NW,315,2.2,4.3,89,0.00,,,0.00,WUHU216HW,2013-07-28 12:07:00,
2013-07-28 07:12:00,52.2,49.1,29.84,NNW,338,1.8,3.8,89,0.00,,,0.00,WUHU216HW,2013-07-28 12:12:00,
2013-07-28 07:17:00,52.4,49.2,29.84,NW,315,3.4,4.5,89,0.00,,,0.00,WUHU216HW,2013-07-28 12:17:00,
2013-07-28 07:22:00,52.4,49.2,29.85,West,270,2.5,6.3,89,0.00,,,0.00,WUHU216HW,2013-07-28 12:22:00,
2013-07-28 07:27:00,52.4,48.9,29.85,West,270,4.7,6.3,88,0.00,,,0.00,WUHU216HW,2013-07-28 12:27:00,
2013-07-28 07:32:00,52.6,49.1,29.85,West,270,1.8,4.7,88,0.00,,,0.00,WUHU216HW,2013-07-28 12:32:00,
2013-07-28 07:37:00,52.7,49.2,29.85,NW,315,2.9,4.7,88,0.00,,,0.00,WUHU216HW,2013-07-28 12:37:00,
2013-07-28 07:42:00,52.9,49.4,29.85,West,270,3.4,4.7,88,0.00,,,0.00,WUHU216HW,2013-07-28 12:42:00,
2013-07-28 07:47:00,52.9,49.2,29.85,WSW,248,4.7,7.4,87,0.00,,,0.00,WUHU216HW,2013-07-28 12:47:00,
2013-07-28 07:52:00,53.3,49.5,29.85,West,270,1.8,7.4,87,0.00,,,0.00,WUHU216HW,2013-07-28 12:52:00,
2013-07-28 07:57:00,53.1,49.3,29.85,North,0,3.1,3.8,87,0.00,,,0.00,WUHU216HW,2013-07-28 12:57:00,
2013-07-28 08:02:00,53.3,49.1,29.85,NNW,338,2.5,5.6,86,0.00,,,0.00,WUHU216HW,2013-07-28 13:02:00,
2013-07-28 08:07:00,53.6,49.5,29.86,WNW,293,3.8,8.1,86,0.00,,,0.00,WUHU216HW,2013-07-28 13:07:00,
2013-07-28 08:12:00,53.5,49.1,29.86,NW,315,2.9,8.7,85,0.00,,,0.00,WUHU216HW,2013-07-28 13:12:00,
2013-07-28 08:17:00,53.3,48.9,29.86,NW,315,3.6,8.7,85,0.00,,,0.00,WUHU216HW,2013-07-28 13:17:00,
2013-07-28 08:22:00,53.3,48.9,29.86,West,270,5.6,7.4,85,0.00,,,0.00,WUHU216HW,2013-07-28 13:22:00,
2013-07-28 08:27:00,53.3,48.2,29.86,West,270,4.5,7.8,83,0.00,,,0.00,WUHU216HW,2013-07-28 13:27:00,
2013-07-28 08:32:00,53.5,48.2,29.87,NNW,338,7.2,8.1,82,0.00,,,0.00,WUHU216HW,2013-07-28 13:32:00,
2013-07-28 08:37:00,53.6,48.3,29.87,NNW,338,6.3,8.1,82,0.00,,,0.00,WUHU216HW,2013-07-28 13:37:00,
2013-07-28 08:42:00,53.8,48.5,29.87,NW,315,7.6,7.6,82,0.00,,,0.00,WUHU216HW,2013-07-28 13:42:00,
2013-07-28 08:47:00,53.8,48.2,29.87,WNW,293,6.9,7.6,81,0.00,,,0.00,WUHU216HW,2013-07-28 13:47:00,
2013-07-28 08:52:00,54.0,48.6,29.87,NNW,338,2.2,6.9,82,0.00,,,0.00,WUHU216HW,2013-07-28 13:52:00,
2013-07-28 08:57:00,54.2,48.2,29.87,WNW,293,5.4,5.4,80,0.00,,,0.00,WUHU216HW,2013-07-28 13:57:00,
2013-07-28 09:02:00,54.5,48.5,29.87,North,0,2.0,6.5,80,0.00,,,0.00,WUHU216HW,2013-07-28 14:02:00,
2013-07-28 09:07:00,55.1,48.7,29.87,NNW,338,4.3,7.4,79,0.00,,,0.00,WUHU216HW,2013-07-28 14:07:00,
2013-07-28 09:12:00,55.1,47.6,29.87,NW,315,4.7,9.8,76,0.00,,,0.00,WUHU216HW,2013-07-28 14:12:00,
2013-07-28 09:17:00,55.4,48.6,29.87,WSW,248,4.0,9.8,78,0.00,,,0.00,WUHU216HW,2013-07-28 14:17:00,
2013-07-28 09:22:00,56.0,48.2,29.87,NNW,338,7.8,7.8,75,0.00,,,0.00,WUHU216HW,2013-07-28 14:22:00,
2013-07-28 09:27:00,55.6,47.8,29.87,NW,315,3.6,7.8,75,0.00,,,0.00,WUHU216HW,2013-07-28 14:27:00,
2013-07-28 09:32:00,55.1,46.9,29.87,WNW,293,8.3,8.3,74,0.00,,,0.00,WUHU216HW,2013-07-28 14:32:00,
2013-07-28 09:37:00,54.7,47.3,29.87,NNW,338,5.6,8.3,76,0.00,,,0.00,WUHU216HW,2013-07-28 14:37:00,
2013-07-28 09:42:00,54.5,47.1,29.87,West,270,4.0,5.6,76,0.00,,,0.00,WUHU216HW,2013-07-28 14:42:00,
2013-07-28 09:47:00,54.5,47.4,29.87,NNW,338,6.3,6.3,77,0.00,,,0.00,WUHU216HW,2013-07-28 14:47:00,
2013-07-28 09:52:00,54.7,48.0,29.87,NW,315,3.4,6.3,78,0.00,,,0.00,WUHU216HW,2013-07-28 14:52:00,
2013-07-28 09:57:00,55.1,48.3,29.87,West,270,2.2,6.0,78,0.00,,,0.00,WUHU216HW,2013-07-28 14:57:00,
2013-07-28 10:02:00,55.8,48.6,29.87,SW,225,4.0,4.0,77,0.00,,,0.00,WUHU216HW,2013-07-28 15:02:00,
2013-07-28 10:07:00,56.9,48.6,29.87,West,270,3.4,5.1,74,0.00,,,0.00,WUHU216HW,2013-07-28 15:07:00,
2013-07-28 10:12:00,56.7,48.1,29.87,WNW,293,1.8,5.1,73,0.00,,,0.00,WUHU216HW,2013-07-28 15:12:00,
2013-07-28 10:17:00,56.2,47.6,29.88,NW,315,3.4,5.6,73,0.00,,,0.00,WUHU216HW,2013-07-28 15:17:00,
2013-07-28 10:22:00,55.8,47.3,29.88,NNW,338,2.5,6.7,73,0.00,,,0.00,WUHU216HW,2013-07-28 15:22:00,
2013-07-28 10:27:00,56.0,47.8,29.88,NNW,338,5.1,6.7,74,0.00,,,0.00,WUHU216HW,2013-07-28 15:27:00,
2013-07-28 10:32:00,56.2,48.0,29.88,WNW,293,6.7,6.7,74,0.00,,,0.00,WUHU216HW,2013-07-28 15:32:00,
2013-07-28 10:37:00,56.7,48.4,29.88,NW,315,1.6,6.7,74,0.00,,,0.00,WUHU216HW,2013-07-28 15:37:00,
2013-07-28 10:42:00,57.2,47.9,29.88,WNW,293,3.8,6.3,71,0.00,,,0.00,WUHU216HW,2013-07-28 15:42:00,
2013-07-28 10:48:00,57.6,48.6,29.88,West,270,1.8,6.3,72,0.00,,,0.00,WUHU216HW,2013-07-28 15:48:00,
2013-07-28 10:53:00,58.0,48.6,29.88,NE,45,1.3,5.4,71,0.00,,,0.00,WUHU216HW,2013-07-28 15:53:00,
2013-07-28 10:58:00,58.0,48.2,29.88,NW,315,9.2,9.2,70,0.00,,,0.00,WUHU216HW,2013-07-28 15:58:00,
2013-07-28 11:03:00,58.0,48.6,29.88,SW,225,4.0,9.2,71,0.00,,,0.00,WUHU216HW,2013-07-28 16:03:00,
2013-07-28 11:08:00,58.5,48.8,29.88,WSW,248,1.8,4.7,70,0.00,,,0.00,WUHU216HW,2013-07-28 16:08:00,
2013-07-28 11:13:00,58.9,48.3,29.88,West,270,6.3,6.3,68,0.00,,,0.00,WUHU216HW,2013-07-28 16:13:00,
2013-07-28 11:18:00,59.4,49.2,29.88,West,270,2.0,7.6,69,0.00,,,0.00,WUHU216HW,2013-07-28 16:18:00,
2013-07-28 11:23:00,59.2,48.7,29.89,West,270,6.3,8.1,68,0.00,,,0.00,WUHU216HW,2013-07-28 16:23:00,
2013-07-28 11:28:00,58.7,49.0,29.89,WNW,293,5.1,8.9,70,0.00,,,0.00,WUHU216HW,2013-07-28 16:28:00,
2013-07-28 11:33:00,58.3,49.0,29.89,West,270,2.2,9.2,71,0.00,,,0.00,WUHU216HW,2013-07-28 16:33:00,
2013-07-28 11:38:00,58.7,49.0,29.89,WSW,248,4.7,9.2,70,0.00,,,0.00,WUHU216HW,2013-07-28 16:38:00,
2013-07-28 11:43:00,58.3,48.6,29.90,NNW,338,3.6,5.8,70,0.00,,,0.00,WUHU216HW,2013-07-28 16:43:00,
2013-07-28 11:48:00,58.1,48.8,29.90,WSW,248,2.7,6.0,71,0.00,,,0.00,WUHU216HW,2013-07-28 16:48:00,
2013-07-28 11:53:00,58.5,49.9,29.90,NNW,338,1.1,7.4,73,0.00,,,0.00,WUHU216HW,2013-07-28 16:53:00,
2013-07-28 11:58:00,59.0,50.0,29.90,West,270,4.7,7.4,72,0.00,,,0.00,WUHU216HW,2013-07-28 16:58:00,
2013-07-28 12:03:00,59.4,50.0,29.89,NE,45,2.0,5.4,71,0.00,,,0.00,WUHU216HW,2013-07-28 17:03:00,
2013-07-28 12:08:00,59.4,50.0,29.90,WNW,293,2.5,7.6,71,0.00,,,0.00,WUHU216HW,2013-07-28 17:08:00,
2013-07-28 12:13:00,59.0,50.0,29.90,South,180,1.3,7.6,72,0.00,,,0.00,WUHU216HW,2013-07-28 17:13:00,
2013-07-28 12:18:00,60.1,50.8,29.89,North,0,3.4,5.4,71,0.00,,,0.00,WUHU216HW,2013-07-28 17:18:00,
2013-07-28 12:23:00,61.4,51.6,29.89,West,270,4.5,5.4,70,0.00,,,0.00,WUHU216HW,2013-07-28 17:23:00,
2013-07-28 12:28:00,61.9,51.7,29.90,NW,315,5.4,6.7,69,0.00,,,0.00,WUHU216HW,2013-07-28 17:28:00,
2013-07-28 12:33:00,61.6,51.4,29.89,WNW,293,4.7,6.7,69,0.00,,,0.00,WUHU216HW,2013-07-28 17:33:00,
2013-07-28 12:38:00,62.3,52.4,29.89,ESE,113,4.7,5.4,70,0.00,,,0.00,WUHU216HW,2013-07-28 17:38:00,
2013-07-28 12:43:00,63.0,51.0,29.89,WNW,293,7.6,7.6,65,0.00,,,0.00,WUHU216HW,2013-07-28 17:43:00,
2013-07-28 12:48:00,62.6,51.5,29.89,SW,225,1.8,7.6,67,0.00,,,0.00,WUHU216HW,2013-07-28 17:48:00,
2013-07-28 12:53:00,62.8,52.9,29.89,North,0,2.7,10.3,70,0.00,,,0.00,WUHU216HW,2013-07-28 17:53:00,
2013-07-28 12:58:00,63.7,52.6,29.89,West,270,6.0,10.3,67,0.00,,,0.00,WUHU216HW,2013-07-28 17:58:00,
2013-07-28 13:03:00,63.5,52.4,29.89,NNE,23,4.0,6.3,67,0.00,,,0.00,WUHU216HW,2013-07-28 18:03:00,
2013-07-28 13:08:00,63.4,51.8,29.90,WSW,248,3.6,7.8,66,0.00,,,0.00,WUHU216HW,2013-07-28 18:08:00,
2013-07-28 13:13:00,62.6,51.5,29.90,NNW,338,2.5,7.8,67,0.00,,,0.00,WUHU216HW,2013-07-28 18:13:00,
2013-07-28 13:18:00,62.5,52.2,29.90,WNW,293,3.4,6.9,69,0.00,,,0.00,WUHU216HW,2013-07-28 18:18:00,
2013-07-28 13:23:00,62.3,51.6,29.90,WNW,293,2.9,6.9,68,0.00,,,0.00,WUHU216HW,2013-07-28 18:23:00,
2013-07-28 13:28:00,62.3,51.6,29.90,West,270,0.9,6.9,68,0.00,,,0.00,WUHU216HW,2013-07-28 18:28:00,
2013-07-28 13:33:00,61.9,51.3,29.90,WNW,293,4.7,4.7,68,0.00,,,0.00,WUHU216HW,2013-07-28 18:33:00,
2013-07-28 13:38:00,62.3,52.0,29.89,NW,315,3.4,4.7,69,0.00,,,0.00,WUHU216HW,2013-07-28 18:38:00,
2013-07-28 13:43:00,63.2,52.5,29.89,North,0,1.3,5.8,68,0.00,,,0.00,WUHU216HW,2013-07-28 18:43:00,
2013-07-28 13:48:00,63.7,52.6,29.89,NW,315,2.5,5.8,67,0.00,,,0.00,WUHU216HW,2013-07-28 18:48:00,
2013-07-28 13:53:00,64.1,52.5,29.89,West,270,3.1,4.7,66,0.00,,,0.00,WUHU216HW,2013-07-28 18:53:00,
2013-07-28 13:58:00,63.9,51.0,29.90,NW,315,7.2,7.2,63,0.00,,,0.00,WUHU216HW,2013-07-28 18:58:00,
2013-07-28 14:03:00,63.7,51.7,29.90,SW,225,2.7,7.2,65,0.00,,,0.00,WUHU216HW,2013-07-28 19:03:00,
2013-07-28 14:08:00,64.1,52.0,29.90,WNW,293,3.6,4.5,65,0.00,,,0.00,WUHU216HW,2013-07-28 19:08:00,
2013-07-28 14:13:00,64.3,52.2,29.90,NW,315,2.5,4.3,65,0.00,,,0.00,WUHU216HW,2013-07-28 19:13:00,
2013-07-28 14:18:00,63.7,51.7,29.90,NW,315,3.8,4.7,65,0.00,,,0.00,WUHU216HW,2013-07-28 19:18:00,
2013-07-28 14:23:00,63.2,51.2,29.90,SW,225,6.0,6.0,65,0.00,,,0.00,WUHU216HW,2013-07-28 19:23:00,
2013-07-28 14:28:00,62.8,51.3,29.90,North,0,2.9,6.0,66,0.00,,,0.00,WUHU216HW,2013-07-28 19:28:00,
2013-07-28 14:33:00,62.6,51.1,29.90,West,270,1.8,5.8,66,0.00,,,0.00,WUHU216HW,2013-07-28 19:33:00,
2013-07-28 14:38:00,63.0,51.8,29.90,WNW,293,2.7,8.5,67,0.00,,,0.00,WUHU216HW,2013-07-28 19:38:00,
2013-07-28 14:43:00,63.0,51.8,29.90,WNW,293,2.9,8.5,67,0.00,,,0.00,WUHU216HW,2013-07-28 19:43:00,
2013-07-28 14:48:00,63.7,52.6,29.90,WNW,293,0.4,4.0,67,0.00,,,0.00,WUHU216HW,2013-07-28 19:48:00,
2013-07-28 14:53:00,63.9,52.8,29.90,West,270,1.3,3.8,67,0.00,,,0.00,WUHU216HW,2013-07-28 19:53:00,
2013-07-28 14:58:00,64.1,52.9,29.90,WSW,248,1.8,5.4,67,0.00,,,0.00,WUHU216HW,2013-07-28 19:58:00,
2013-07-28 15:03:00,64.1,52.5,29.90,WNW,293,4.0,5.4,66,0.00,,,0.00,WUHU216HW,2013-07-28 20:03:00,
2013-07-28 15:08:00,64.1,52.5,29.90,West,270,1.8,4.0,66,0.00,,,0.00,WUHU216HW,2013-07-28 20:08:00,
2013-07-28 15:13:00,64.4,52.8,29.90,NW,315,7.2,7.2,66,0.00,,,0.00,WUHU216HW,2013-07-28 20:13:00,
2013-07-28 15:18:00,64.1,52.0,29.90,WNW,293,4.0,7.2,65,0.00,,,0.00,WUHU216HW,2013-07-28 20:18:00,
2013-07-28 15:23:00,64.1,52.0,29.90,NW,315,4.7,4.7,65,0.00,,,0.00,WUHU216HW,2013-07-28 20:23:00,
2013-07-28 15:28:00,64.3,53.1,29.90,WNW,293,2.5,6.5,67,0.00,,,0.00,WUHU216HW,2013-07-28 20:28:00,
2013-07-28 15:33:00,65.2,53.1,29.90,NW,315,6.0,6.5,65,0.00,,,0.00,WUHU216HW,2013-07-28 20:33:00,
2013-07-28 15:38:00,65.5,53.0,29.90,NW,315,7.6,7.6,64,0.00,,,0.00,WUHU216HW,2013-07-28 20:38:00,
2013-07-28 15:43:00,65.9,53.7,29.90,NE,45,2.0,7.6,65,0.00,,,0.00,WUHU216HW,2013-07-28 20:43:00,
2013-07-28 15:48:00,66.4,54.3,29.90,NNW,338,2.5,4.9,65,0.00,,,0.00,WUHU216HW,2013-07-28 20:48:00,
2013-07-28 15:53:00,67.3,53.5,29.90,South,180,3.4,5.8,61,0.00,,,0.00,WUHU216HW,2013-07-28 20:53:00,
2013-07-28 15:58:00,67.5,53.2,29.90,NNW,338,6.9,6.9,60,0.00,,,0.00,WUHU216HW,2013-07-28 20:58:00,
2013-07-28 16:03:00,67.7,54.2,29.90,South,180,1.3,6.9,62,0.00,,,0.00,WUHU216HW,2013-07-28 21:03:00,
2013-07-28 16:08:00,68.2,54.7,29.90,NW,315,3.4,3.4,62,0.00,,,0.00,WUHU216HW,2013-07-28 21:08:00,
2013-07-28 16:13:00,68.6,53.2,29.90,NNW,338,6.3,6.3,58,0.00,,,0.00,WUHU216HW,2013-07-28 21:13:00,
2013-07-28 16:18:00,68.4,53.6,29.90,NW,315,3.8,7.6,59,0.00,,,0.00,WUHU216HW,2013-07-28 21:18:00,
2013-07-28 16:23:00,67.3,52.5,29.90,WNW,293,4.7,7.6,59,0.00,,,0.00,WUHU216HW,2013-07-28 21:23:00,
2013-07-28 16:28:00,67.3,54.3,29.90,NW,315,2.7,5.4,63,0.00,,,0.00,WUHU216HW,2013-07-28 21:28:00,
2013-07-28 16:33:00,68.6,55.0,29.90,WSW,248,2.9,5.4,62,0.00,,,0.00,WUHU216HW,2013-07-28 21:33:00,
2013-07-28 16:38:00,69.3,52.9,29.90,West,270,5.1,8.7,56,0.00,,,0.00,WUHU216HW,2013-07-28 21:38:00,
2013-07-28 16:43:00,69.5,53.6,29.90,WNW,293,2.0,8.7,57,0.00,,,0.00,WUHU216HW,2013-07-28 21:43:00,
2013-07-28 16:48:00,70.2,54.7,29.90,WSW,248,2.2,5.8,58,0.00,,,0.00,WUHU216HW,2013-07-28 21:48:00,
2013-07-28 16:53:00,70.2,53.3,29.90,NNW,338,5.6,5.6,55,0.00,,,0.00,WUHU216HW,2013-07-28 21:53:00,
2013-07-28 16:58:00,70.0,54.6,29.90,SSW,203,2.7,7.6,58,0.00,,,0.00,WUHU216HW,2013-07-28 21:58:00,
2013-07-28 17:03:00,70.0,53.6,29.90,West,270,5.4,7.6,56,0.00,,,0.00,WUHU216HW,2013-07-28 22:03:00,
2013-07-28 17:08:00,70.0,53.6,29.90,West,270,4.7,8.1,56,0.00,,,0.00,WUHU216HW,2013-07-28 22:08:00,
2013-07-28 17:13:00,70.0,52.6,29.90,SSW,203,1.1,8.1,54,0.00,,,0.00,WUHU216HW,2013-07-28 22:13:00,
2013-07-28 17:18:00,68.8,52.4,29.90,SSE,158,2.0,6.7,56,0.00,,,0.00,WUHU216HW,2013-07-28 22:18:00,
2013-07-28 17:23:00,68.6,51.8,29.90,SW,225,7.6,7.6,55,0.00,,,0.00,WUHU216HW,2013-07-28 22:23:00,
2013-07-28 17:28:00,68.0,52.7,29.90,NW,315,0.7,7.6,58,0.00,,,0.00,WUHU216HW,2013-07-28 22:28:00,
2013-07-28 17:33:00,68.4,52.6,29.90,WSW,248,5.4,8.5,57,0.00,,,0.00,WUHU216HW,2013-07-28 22:33:00,
2013-07-28 17:38:00,67.7,51.4,29.90,WSW,248,4.0,8.5,56,0.00,,,0.00,WUHU216HW,2013-07-28 22:38:00,
2013-07-28 17:43:00,66.8,51.0,29.91,WSW,248,6.0,8.5,57,0.00,,,0.00,WUHU216HW,2013-07-28 22:43:00,
2013-07-28 17:48:00,66.6,51.8,29.91,NW,315,3.1,8.5,59,0.00,,,0.00,WUHU216HW,2013-07-28 22:48:00,
2013-07-28 17:53:00,67.1,52.8,29.91,NW,315,4.7,7.6,60,0.00,,,0.00,WUHU216HW,2013-07-28 22:53:00,
2013-07-28 17:58:00,67.7,51.8,29.91,WNW,293,5.1,6.0,57,0.00,,,0.00,WUHU216HW,2013-07-28 22:58:00,
2013-07-28 18:03:00,68.2,52.4,29.91,West,270,5.1,5.1,57,0.00,,,0.00,WUHU216HW,2013-07-28 23:03:00,
2013-07-28 18:08:00,68.2,51.8,29.91,NW,315,2.9,5.1,56,0.00,,,0.00,WUHU216HW,2013-07-28 23:08:00,
2013-07-28 18:13:00,67.3,51.6,29.91,WNW,293,3.1,8.9,57,0.00,,,0.00,WUHU216HW,2013-07-28 23:13:00,
2013-07-28 18:18:00,66.6,50.9,29.91,WNW,293,4.7,8.9,57,0.00,,,0.00,WUHU216HW,2013-07-28 23:18:00,
2013-07-28 18:23:00,66.4,51.7,29.92,WNW,293,3.4,6.5,59,0.00,,,0.00,WUHU216HW,2013-07-28 23:23:00,
2013-07-28 18:28:00,66.2,51.6,29.92,NW,315,7.8,7.8,59,0.00,,,0.00,WUHU216HW,2013-07-28 23:28:00,
2013-07-28 18:33:00,66.1,51.4,29.92,NW,315,2.2,7.8,59,0.00,,,0.00,WUHU216HW,2013-07-28 23:33:00,
2013-07-28 18:38:00,66.4,51.7,29.92,West,270,4.7,5.4,59,0.00,,,0.00,WUHU216HW,2013-07-28 23:38:00,
2013-07-28 18:43:00,65.9,51.7,29.92,SSE,158,3.1,6.3,60,0.00,,,0.00,WUHU216HW,2013-07-28 23:43:00,
2013-07-28 18:48:00,65.7,51.9,29.92,West,270,0.7,6.3,61,0.00,,,0.00,WUHU216HW,2013-07-28 23:48:00,
2013-07-28 18:53:00,65.7,51.9,29.92,NW,315,4.9,6.0,61,0.00,,,0.00,WUHU216HW,2013-07-28 23:53:00,
2013-07-28 18:58:00,65.3,51.9,29.92,WSW,248,3.4,6.0,62,0.00,,,0.00,WUHU216HW,2013-07-28 23:58:00,
2013-07-28 19:03:00,65.0,51.6,29.92,WNW,293,3.4,3.6,62,0.00,,,0.00,WUHU216HW,2013-07-29 00:03:00,
2013-07-28 19:08:00,64.4,51.5,29.92,West,270,1.1,3.6,63,0.00,,,0.00,WUHU216HW,2013-07-29 00:08:00,
2013-07-28 19:13:00,64.3,51.8,29.92,NW,315,0.4,3.4,64,0.00,,,0.00,WUHU216HW,2013-07-29 00:13:00,
2013-07-28 19:18:00,64.1,52.0,29.92,NW,315,2.7,3.8,65,0.00,,,0.00,WUHU216HW,2013-07-29 00:18:00,
2013-07-28 19:23:00,64.1,52.0,29.92,WSW,248,2.5,4.0,65,0.00,,,0.00,WUHU216HW,2013-07-29 00:23:00,
2013-07-28 19:28:00,63.7,51.7,29.92,NW,315,0.7,4.0,65,0.00,,,0.00,WUHU216HW,2013-07-29 00:28:00,
2013-07-28 19:33:00,63.7,52.1,29.93,NW,315,2.5,3.1,66,0.00,,,0.00,WUHU216HW,2013-07-29 00:33:00,
2013-07-28 19:38:00,63.7,52.1,29.93,West,270,1.8,3.1,66,0.00,,,0.00,WUHU216HW,2013-07-29 00:38:00,
2013-07-28 19:43:00,63.5,51.9,29.93,NW,315,3.4,3.4,66,0.00,,,0.00,WUHU216HW,2013-07-29 00:43:00,
2013-07-28 19:48:00,63.4,51.8,29.93,WSW,248,1.8,3.4,66,0.00,,,0.00,WUHU216HW,2013-07-29 00:48:00,
2013-07-28 19:53:00,63.4,52.2,29.93,West,270,2.7,3.1,67,0.00,,,0.00,WUHU216HW,2013-07-29 00:53:00,
2013-07-28 19:58:00,63.2,52.0,29.93,WSW,248,1.1,3.6,67,0.00,,,0.00,WUHU216HW,2013-07-29 00:58:00,
2013-07-28 20:03:00,63.0,52.3,29.93,NNW,338,2.5,5.6,68,0.00,,,0.00,WUHU216HW,2013-07-29 01:03:00,
2013-07-28 20:08:00,63.0,52.3,29.93,NNW,338,3.6,5.6,68,0.00,,,0.00,WUHU216HW,2013-07-29 01:08:00,
2013-07-28 20:14:00,63.0,52.3,29.94,WNW,293,1.1,3.6,68,0.00,,,0.00,WUHU216HW,2013-07-29 01:14:00,
2013-07-28 20:19:00,62.8,52.1,29.93,West,270,1.6,3.6,68,0.00,,,0.00,WUHU216HW,2013-07-29 01:19:00,
2013-07-28 20:24:00,62.8,52.1,29.94,ENE,68,0.4,3.6,68,0.00,,,0.00,WUHU216HW,2013-07-29 01:24:00,
2013-07-28 20:29:00,62.6,52.3,29.94,West,270,4.0,4.0,69,0.00,,,0.00,WUHU216HW,2013-07-29 01:29:00,
2013-07-28 20:34:00,62.6,52.3,29.94,WNW,293,3.4,4.0,69,0.00,,,0.00,WUHU216HW,2013-07-29 01:34:00,
2013-07-28 20:39:00,62.6,52.3,29.94,WNW,293,1.1,3.4,69,0.00,,,0.00,WUHU216HW,2013-07-29 01:39:00,
2013-07-28 20:44:00,62.5,52.2,29.94,NNW,338,1.6,2.0,69,0.00,,,0.00,WUHU216HW,2013-07-29 01:44:00,
2013-07-28 20:49:00,62.3,52.4,29.94,SW,225,1.1,2.2,70,0.00,,,0.00,WUHU216HW,2013-07-29 01:49:00,
2013-07-28 20:54:00,62.3,52.4,29.94,NW,315,1.8,3.4,70,0.00,,,0.00,WUHU216HW,2013-07-29 01:54:00,
2013-07-28 20:59:00,62.3,52.4,29.94,West,270,1.3,3.4,70,0.00,,,0.00,WUHU216HW,2013-07-29 01:59:00,
2013-07-28 21:04:00,62.3,52.4,29.94,NW,315,4.0,4.0,70,0.00,,,0.00,WUHU216HW,2013-07-29 02:04:00,
2013-07-28 21:10:00,62.3,52.4,29.95,WNW,293,1.8,4.0,70,0.00,,,0.00,WUHU216HW,2013-07-29 02:10:00,
2013-07-28 21:15:00,62.3,52.4,29.95,West,270,3.1,3.1,70,0.00,,,0.00,WUHU216HW,2013-07-29 02:15:00,
2013-07-28 21:20:00,62.3,52.7,29.95,North,0,2.2,3.1,71,0.00,,,0.00,WUHU216HW,2013-07-29 02:20:00,
2013-07-28 21:25:00,62.3,52.7,29.95,WNW,293,1.1,4.7,71,0.00,,,0.00,WUHU216HW,2013-07-29 02:25:00,
2013-07-28 21:30:00,62.3,52.7,29.95,WNW,293,2.2,4.7,71,0.00,,,0.00,WUHU216HW,2013-07-29 02:30:00,
2013-07-28 21:35:00,62.1,52.7,29.96,NW,315,3.4,3.8,71,0.00,,,0.00,WUHU216HW,2013-07-29 02:35:00,
2013-07-28 21:40:00,62.1,52.7,29.96,NW,315,2.0,3.4,71,0.00,,,0.00,WUHU216HW,2013-07-29 02:40:00,
2013-07-28 21:45:00,62.1,52.7,29.96,NE,45,0.9,3.1,71,0.00,,,0.00,WUHU216HW,2013-07-29 02:45:00,
2013-07-28 21:51:00,62.1,52.7,29.96,West,270,1.6,3.1,71,0.00,,,0.00,WUHU216HW,2013-07-29 02:51:00,
2013-07-28 21:56:00,62.1,52.7,29.96,NW,315,2.0,3.4,71,0.00,,,0.00,WUHU216HW,2013-07-29 02:56:00,
2013-07-28 22:01:00,62.1,52.7,29.96,NE,45,1.6,4.7,71,0.00,,,0.00,WUHU216HW,2013-07-29 03:01:00,
2013-07-28 22:06:00,62.1,52.7,29.96,NW,315,2.9,4.7,71,0.00,,,0.00,WUHU216HW,2013-07-29 03:06:00,
2013-07-28 22:11:00,62.1,52.7,29.96,WNW,293,2.2,3.8,71,0.00,,,0.00,WUHU216HW,2013-07-29 03:11:00,
2013-07-28 22:16:00,62.1,52.7,29.96,NW,315,3.8,4.7,71,0.00,,,0.00,WUHU216HW,2013-07-29 03:16:00,
2013-07-28 22:21:00,61.9,52.5,29.96,WNW,293,0.4,4.7,71,0.00,,,0.00,WUHU216HW,2013-07-29 03:21:00,
2013-07-28 22:27:00,61.9,52.1,29.97,WSW,248,0.7,3.1,70,0.00,,,0.00,WUHU216HW,2013-07-29 03:27:00,
2013-07-28 22:32:00,61.9,52.1,29.97,NNW,338,1.8,3.1,70,0.00,,,0.00,WUHU216HW,2013-07-29 03:32:00,
2013-07-28 22:37:00,61.7,52.3,29.97,North,0,0.2,2.5,71,0.00,,,0.00,WUHU216HW,2013-07-29 03:37:00,
2013-07-28 22:42:00,61.7,52.3,29.97,West,270,1.8,2.5,71,0.00,,,0.00,WUHU216HW,2013-07-29 03:42:00,
2013-07-28 22:47:00,61.6,52.1,29.97,NW,315,2.2,2.2,71,0.00,,,0.00,WUHU216HW,2013-07-29 03:47:00,
2013-07-28 22:52:00,61.6,52.1,29.97,West,270,0.4,2.2,71,0.00,,,0.00,WUHU216HW,2013-07-29 03:52:00,
2013-07-28 22:58:00,61.4,52.3,29.97,NW,315,2.0,2.0,72,0.00,,,0.00,WUHU216HW,2013-07-29 03:58:00,
2013-07-28 23:01:00,61.4,52.3,29.97,West,270,0.7,3.4,72,0.00,,,0.00,WUHU216HW,2013-07-29 04:01:00,
2013-07-28 23:02:00,61.4,52.3,29.97,WSW,248,2.2,3.4,72,0.00,,,0.00,WUHU216HW,2013-07-29 04:02:00,
2013-07-28 23:07:00,61.4,52.3,29.97,West,270,1.6,3.4,72,0.00,,,0.00,WUHU216HW,2013-07-29 04:07:00,
2013-07-28 23:12:00,61.4,52.7,29.97,WSW,248,0.9,2.2,73,0.00,,,0.00,WUHU216HW,2013-07-29 04:12:00,
2013-07-28 23:17:00,61.2,52.6,29.98,NW,315,1.8,2.2,73,0.00,,,0.00,WUHU216HW,2013-07-29 04:17:00,
2013-07-28 23:22:00,61.2,52.6,29.98,NW,315,1.8,1.8,73,0.00,,,0.00,WUHU216HW,2013-07-29 04:22:00,
2013-07-28 23:27:00,61.2,52.6,29.97,NW,315,4.3,4.3,73,0.00,,,0.00,WUHU216HW,2013-07-29 04:27:00,
2013-07-28 23:32:00,61.0,52.8,29.98,WNW,293,2.0,4.3,74,0.00,,,0.00,WUHU216HW,2013-07-29 04:32:00,
2013-07-28 23:37:00,61.0,52.8,29.98,NW,315,3.8,4.9,74,0.00,,,0.00,WUHU216HW,2013-07-29 04:37:00,
2013-07-28 23:42:00,61.0,52.8,29.98,West,270,1.1,4.9,74,0.00,,,0.00,WUHU216HW,2013-07-29 04:42:00,
2013-07-28 23:47:00,60.8,52.6,29.98,NNW,338,3.1,3.4,74,0.00,,,0.00,WUHU216HW,2013-07-29 04:47:00,
2013-07-28 23:52:00,60.8,52.6,29.98,West,270,4.7,4.7,74,0.00,,,0.00,WUHU216HW,2013-07-29 04:52:00,
2013-07-28 23:57:00,60.8,52.6,29.98,NNW,338,2.9,4.7,74,0.00,,,0.00,WUHU216HW,2013-07-29 04:57:00,